Time;durP1;ratioP1;P1;durP2;ratioP2;P2;SDS_P1;SDS_P2;PMS_P1;PMS_P2;Temp;Humidity;BMP_temperature;BMP_pressure;BME280_temperature;BME280_humidity;BME280_pressure;Samples;Min_cycle;Max_cycle;Signal;HPM_P1;HPM_P2
2023/10/14 00:02:26;;;;;;;18.33;9.38;;;;;;;-147.98;100.00;69253.78;5000236;28;20427;-88
2023/10/14 00:05:00;;;;;;;20.30;9.40;;;;;;;-147.98;100.00;69253.78;5001550;28;20795;-86
2023/10/14 00:07:33;;;;;;;19.52;9.30;;;;;;;-147.98;100.00;69253.78;4990733;28;20428;-87
2023/10/14 00:10:03;;;;;;;19.73;9.17;;;;;;;-147.98;100.00;69253.78;5001193;28;20510;-86
2023/10/14 00:12:38;;;;;;;19.38;9.88;;;;;;;-147.98;100.00;69253.78;4983681;28;20417;-86
2023/10/14 00:15:08;;;;;;;24.00;10.25;;;;;;;-147.98;100.00;69253.78;4991467;28;20431;-87
2023/10/14 00:17:41;;;;;;;20.45;9.75;;;;;;;-147.98;100.00;69253.78;5006552;28;20425;-89
2023/10/14 00:20:15;;;;;;;21.13;9.77;;;;;;;-147.98;100.00;69253.78;4999830;28;20429;-85
2023/10/14 00:22:44;;;;;;;21.52;9.93;;;;;;;-147.98;100.00;69253.78;4990486;28;20436;-87
2023/10/14 00:25:21;;;;;;;21.95;10.00;;;;;;;-147.98;100.00;69253.78;4991726;28;20428;-86
2023/10/14 00:27:50;;;;;;;19.70;9.48;;;;;;;-147.98;100.00;69253.78;5004443;28;20424;-87
2023/10/14 00:30:26;;;;;;;20.52;9.35;;;;;;;-147.98;100.00;69253.78;5009197;28;20427;-87
2023/10/14 00:32:56;;;;;;;23.90;9.35;;;;;;;-147.98;100.00;69253.78;4999355;28;20444;-86
2023/10/14 00:35:30;;;;;;;21.58;9.13;;;;;;;-147.98;100.00;69253.78;4998153;28;21102;-85
2023/10/14 00:38:08;;;;;;;21.50;8.82;;;;;;;-147.98;100.00;69253.78;4992488;28;20444;-88
2023/10/14 00:40:46;;;;;;;19.02;8.57;;;;;;;-147.98;100.00;69253.78;5003921;28;20433;-86
2023/10/14 00:43:14;;;;;;;17.38;8.57;;;;;;;-147.98;100.00;69253.78;5002515;28;20445;-87
2023/10/14 00:45:44;;;;;;;9.23;2.95;;;;;;;-147.98;100.00;69253.78;5001934;28;20923;-89
2023/10/14 00:48:19;;;;;;;8.00;1.90;;;;;;;-147.98;100.00;69253.78;4993285;28;20533;-88
2023/10/14 00:50:50;;;;;;;16.65;2.33;;;;;;;-147.98;100.00;69253.78;5004978;28;20440;-86
2023/10/14 00:53:27;;;;;;;7.22;2.10;;;;;;;-147.98;100.00;69253.78;4995218;28;20459;-86
2023/10/14 00:55:55;;;;;;;4.57;1.63;;;;;;;-147.98;100.00;69253.78;4986900;28;20432;-86
2023/10/14 00:58:24;;;;;;;4.95;1.42;;;;;;;-147.98;100.00;69253.78;5006021;28;20417;-86
2023/10/14 01:00:58;;;;;;;5.00;1.40;;;;;;;-147.98;100.00;69253.78;5007301;28;20420;-87
2023/10/14 01:03:31;;;;;;;3.22;1.20;;;;;;;-147.98;100.00;69253.78;4983543;28;20437;-86
2023/10/14 01:06:07;;;;;;;4.00;1.30;;;;;;;-147.98;100.00;69253.78;4991165;28;20444;-87
2023/10/14 01:08:42;;;;;;;4.15;1.20;;;;;;;-147.98;100.00;69253.78;4990372;28;20441;-86
2023/10/14 01:11:11;;;;;;;5.50;1.13;;;;;;;-147.98;100.00;69253.78;5006050;28;20770;-87
2023/10/14 01:13:39;;;;;;;4.60;1.17;;;;;;;-147.98;100.00;69253.78;5004960;28;20435;-87
2023/10/14 01:16:15;;;;;;;3.58;1.08;;;;;;;-147.98;100.00;69253.78;5003704;28;20432;-86
2023/10/14 01:18:47;;;;;;;4.95;1.10;;;;;;;-147.98;100.00;69253.78;5005427;28;20434;-88
2023/10/14 01:21:15;;;;;;;3.25;0.98;;;;;;;-147.98;100.00;69253.78;4992871;28;20460;-88
2023/10/14 01:23:49;;;;;;;6.22;1.05;;;;;;;-147.98;100.00;69253.78;5002936;28;20413;-86
2023/10/14 01:26:17;;;;;;;3.03;1.00;;;;;;;-147.98;100.00;69253.78;4996210;28;20421;-87
2023/10/14 01:28:58;;;;;;;2.90;1.10;;;;;;;-147.98;100.00;69253.78;5003586;28;20799;-86
2023/10/14 01:32:01;;;;;;;3.55;0.93;;;;;;;-147.98;100.00;69253.78;5004769;28;20451;-87
2023/10/14 01:34:42;;;;;;;3.65;0.93;;;;;;;-147.98;100.00;69253.78;4992938;28;21090;-86
2023/10/14 01:37:17;;;;;;;3.58;0.90;;;;;;;-147.98;100.00;69253.78;5004050;28;20434;-86
2023/10/14 01:39:50;;;;;;;2.22;0.80;;;;;;;-147.98;100.00;69253.78;5002094;28;20424;-87
2023/10/14 01:42:23;;;;;;;3.88;0.80;;;;;;;-147.98;100.00;69253.78;5012218;28;20421;-88
2023/10/14 01:44:53;;;;;;;4.10;0.90;;;;;;;-147.98;100.00;69253.78;4999905;28;20435;-87
2023/10/14 01:47:25;;;;;;;4.80;1.00;;;;;;;-147.98;100.00;69253.78;5005539;28;20503;-89
2023/10/14 01:49:53;;;;;;;2.33;0.90;;;;;;;-147.98;100.00;69253.78;4998551;28;20422;-87
2023/10/14 01:52:22;;;;;;;3.33;0.80;;;;;;;-147.98;100.00;69253.78;5007446;28;20428;-86
2023/10/14 01:54:55;;;;;;;3.58;0.77;;;;;;;-147.98;100.00;69253.78;5010688;28;20428;-87
2023/10/14 01:57:24;;;;;;;2.75;0.90;;;;;;;-147.98;100.00;69253.78;5006368;28;20431;-87
2023/10/14 01:59:53;;;;;;;2.88;0.80;;;;;;;-147.98;100.00;69253.78;4983945;28;20893;-87
2023/10/14 02:02:21;;;;;;;3.85;0.80;;;;;;;-147.98;100.00;69253.78;5003391;28;20835;-87
2023/10/14 02:04:57;;;;;;;2.60;0.82;;;;;;;-147.98;100.00;69253.78;5005699;28;20907;-89
2023/10/14 02:07:26;;;;;;;1.85;0.73;;;;;;;-147.98;100.00;69253.78;5006455;28;20915;-87
2023/10/14 02:09:56;;;;;;;2.05;0.70;;;;;;;-147.98;100.00;69253.78;4987534;28;20809;-87
2023/10/14 02:12:25;;;;;;;4.35;1.00;;;;;;;-147.98;100.00;69253.78;5006710;28;20418;-90
2023/10/14 02:14:58;;;;;;;2.50;0.80;;;;;;;-147.98;100.00;69253.78;4986879;28;20789;-88
2023/10/14 02:17:26;;;;;;;4.30;0.80;;;;;;;-147.98;100.00;69253.78;5001509;28;20434;-88
2023/10/14 02:20:06;;;;;;;3.10;0.80;;;;;;;-147.98;100.00;69253.78;4987865;28;20416;-90
2023/10/14 02:22:38;;;;;;;1.80;0.70;;;;;;;-147.98;100.00;69253.78;4990525;28;20443;-88
2023/10/14 02:25:08;;;;;;;2.80;0.80;;;;;;;-147.98;100.00;69253.78;5002313;28;20835;-88
2023/10/14 02:27:42;;;;;;;1.38;0.70;;;;;;;-147.98;100.00;69253.78;4993944;28;20779;-89
2023/10/14 02:30:13;;;;;;;4.30;0.70;;;;;;;-147.98;100.00;69253.78;4994415;28;20443;-88
2023/10/14 02:32:41;;;;;;;4.40;0.93;;;;;;;-147.98;100.00;69253.78;5005447;28;20423;-88
2023/10/14 02:35:12;;;;;;;2.47;0.77;;;;;;;-147.98;100.00;69253.78;4999978;28;20426;-88
2023/10/14 02:37:40;;;;;;;4.93;1.00;;;;;;;-147.98;100.00;69253.78;5003334;28;20968;-87
2023/10/14 02:40:16;;;;;;;5.60;0.90;;;;;;;-147.98;100.00;69253.78;4986919;28;20927;-87
2023/10/14 02:42:44;;;;;;;7.70;1.00;;;;;;;-147.98;100.00;69253.78;4989977;28;20429;-87
2023/10/14 02:45:20;;;;;;;5.75;1.27;;;;;;;-147.98;100.00;69253.78;5004831;28;20439;-86
2023/10/14 02:47:53;;;;;;;3.90;1.30;;;;;;;-147.98;100.00;69253.78;4993961;28;20425;-87
2023/10/14 02:50:24;;;;;;;5.47;0.85;;;;;;;-147.98;100.00;69253.78;4999238;28;20446;-88
2023/10/14 02:53:01;;;;;;;2.47;1.00;;;;;;;-147.98;100.00;69253.78;5001165;28;20433;-86
2023/10/14 02:55:50;;;;;;;4.05;0.90;;;;;;;-147.98;100.00;69253.78;5001186;28;20417;-87
2023/10/14 02:58:21;;;;;;;6.13;1.07;;;;;;;-147.98;100.00;69253.78;5004185;28;20791;-86
2023/10/14 03:00:59;;;;;;;5.68;1.17;;;;;;;-147.98;100.00;69253.78;4999935;28;20431;-88
2023/10/14 03:03:29;;;;;;;4.07;1.27;;;;;;;-147.98;100.00;69253.78;5001244;28;20430;-86
2023/10/14 03:06:05;;;;;;;4.40;1.13;;;;;;;-147.98;100.00;69253.78;5001281;28;20420;-87
2023/10/14 03:08:34;;;;;;;8.35;1.50;;;;;;;-147.98;100.00;69253.78;5006603;28;20426;-87
2023/10/14 03:11:16;;;;;;;9.63;1.50;;;;;;;-147.98;100.00;69253.78;5013609;28;20439;-87
2023/10/14 03:13:44;;;;;;;9.93;1.80;;;;;;;-147.98;100.00;69253.78;5001171;28;20795;-89
2023/10/14 03:16:17;;;;;;;9.15;2.75;;;;;;;-147.98;100.00;69253.78;4993251;28;20425;-87
2023/10/14 03:18:45;;;;;;;8.40;2.80;;;;;;;-147.98;100.00;69253.78;5005215;28;20425;-89
2023/10/14 03:21:31;;;;;;;7.75;1.80;;;;;;;-147.98;100.00;69253.78;4979977;28;20424;-88
2023/10/14 03:24:00;;;;;;;5.07;1.67;;;;;;;-147.98;100.00;69253.78;5000971;28;20422;-89
2023/10/14 03:26:32;;;;;;;4.72;1.30;;;;;;;-147.98;100.00;69253.78;4989348;28;20426;-88
2023/10/14 03:29:04;;;;;;;5.35;1.20;;;;;;;-147.98;100.00;69253.78;4998364;28;20427;-86
2023/10/14 03:31:35;;;;;;;7.25;1.20;;;;;;;-147.98;100.00;69253.78;4993962;28;20435;-87
2023/10/14 03:34:08;;;;;;;6.05;1.50;;;;;;;-147.98;100.00;69253.78;5003405;28;20427;-88
2023/10/14 03:36:39;;;;;;;7.68;1.77;;;;;;;-147.98;100.00;69253.78;5002604;28;20412;-86
2023/10/14 03:39:21;;;;;;;7.85;1.40;;;;;;;-147.98;100.00;69253.78;5004603;28;20430;-88
2023/10/14 03:41:52;;;;;;;5.35;1.30;;;;;;;-147.98;100.00;69253.78;5003102;28;20432;-90
2023/10/14 03:44:23;;;;;;;8.23;1.70;;;;;;;-147.98;100.00;69253.78;4992130;28;20433;-89
2023/10/14 03:47:00;;;;;;;7.22;1.27;;;;;;;-147.98;100.00;69253.78;4999465;28;20421;-88
2023/10/14 03:49:32;;;;;;;7.23;1.70;;;;;;;-147.98;100.00;69253.78;4997366;28;20421;-87
2023/10/14 03:52:00;;;;;;;8.75;1.48;;;;;;;-147.98;100.00;69253.78;4981708;28;20439;-87
2023/10/14 03:54:31;;;;;;;8.05;1.50;;;;;;;-147.98;100.00;69253.78;4991001;28;20927;-87
2023/10/14 03:57:03;;;;;;;7.93;1.83;;;;;;;-147.98;100.00;69253.78;4987052;28;20421;-90
2023/10/14 03:59:33;;;;;;;7.45;1.48;;;;;;;-147.98;100.00;69253.78;5002070;28;20436;-88
2023/10/14 04:02:05;;;;;;;7.10;1.38;;;;;;;-147.98;100.00;69253.78;4994571;28;20422;-89
2023/10/14 04:04:34;;;;;;;9.43;1.45;;;;;;;-147.98;100.00;69253.78;4984629;28;20431;-88
2023/10/14 04:07:15;;;;;;;8.10;1.30;;;;;;;-147.98;100.00;69253.78;5002662;28;20437;-89
2023/10/14 04:09:46;;;;;;;7.53;1.38;;;;;;;-147.98;100.00;69253.78;4990569;28;20417;-89
2023/10/14 04:12:29;;;;;;;11.52;1.27;;;;;;;-147.98;100.00;69253.78;5007124;28;20822;-91
2023/10/14 04:15:05;;;;;;;6.68;1.08;;;;;;;-147.98;100.00;69253.78;4983029;28;20421;-88
2023/10/14 04:17:33;;;;;;;6.65;1.13;;;;;;;-147.98;100.00;69253.78;5002976;28;20768;-91
2023/10/14 04:20:20;;;;;;;9.80;1.33;;;;;;;-147.98;100.00;69253.78;4980878;28;20451;-89
2023/10/14 04:22:51;;;;;;;7.72;1.40;;;;;;;-147.98;100.00;69253.78;4997149;28;20426;-89
2023/10/14 04:25:22;;;;;;;7.53;1.33;;;;;;;-147.98;100.00;69253.78;4982037;28;20422;-90
2023/10/14 04:28:17;;;;;;;7.05;1.23;;;;;;;-147.98;100.00;69253.78;4983299;28;21073;-89
2023/10/14 04:30:46;;;;;;;6.25;1.17;;;;;;;-147.98;100.00;69253.78;4991811;28;20425;-90
2023/10/14 04:33:23;;;;;;;6.57;1.27;;;;;;;-147.98;100.00;69253.78;4981062;28;21070;-89
2023/10/14 04:35:59;;;;;;;12.60;1.75;;;;;;;-147.98;100.00;69253.78;5007366;28;20433;-89
2023/10/14 04:38:37;;;;;;;8.48;1.33;;;;;;;-147.98;100.00;69253.78;5001855;28;22128;-89
2023/10/14 04:41:12;;;;;;;9.85;1.40;;;;;;;-147.98;100.00;69253.78;4998700;28;20428;-91
2023/10/14 04:44:00;;;;;;;10.27;1.50;;;;;;;-147.98;100.00;69253.78;5001415;28;21148;-89
2023/10/14 04:46:45;;;;;;;9.52;1.60;;;;;;;-147.98;100.00;69253.78;5009501;28;20412;-89
2023/10/14 04:49:16;;;;;;;9.15;1.33;;;;;;;-147.98;100.00;69253.78;4983718;28;20457;-90
2023/10/14 04:51:47;;;;;;;7.05;1.35;;;;;;;-147.98;100.00;69253.78;4989894;28;20803;-90
2023/10/14 04:54:19;;;;;;;7.68;1.30;;;;;;;-147.98;100.00;69253.78;4982542;28;20420;-89
2023/10/14 04:56:47;;;;;;;8.77;1.33;;;;;;;-147.98;100.00;69253.78;4997765;28;20425;-90
2023/10/14 04:59:24;;;;;;;10.75;1.50;;;;;;;-147.98;100.00;69253.78;4982701;28;20432;-88
2023/10/14 05:01:55;;;;;;;10.10;1.58;;;;;;;-147.98;100.00;69253.78;4999814;28;20444;-90
2023/10/14 05:04:30;;;;;;;8.35;1.50;;;;;;;-147.98;100.00;69253.78;5009325;28;20451;-90
2023/10/14 05:07:05;;;;;;;10.93;1.75;;;;;;;-147.98;100.00;69253.78;5004651;28;20436;-88
2023/10/14 05:09:39;;;;;;;9.68;1.90;;;;;;;-147.98;100.00;69253.78;4992012;28;20445;-89
2023/10/14 05:12:09;;;;;;;11.60;1.95;;;;;;;-147.98;100.00;69253.78;5009689;28;20523;-90
2023/10/14 05:14:42;;;;;;;12.38;1.92;;;;;;;-147.98;100.00;69253.78;5006598;28;20425;-91
2023/10/14 05:17:16;;;;;;;9.32;1.50;;;;;;;-147.98;100.00;69253.78;5007788;28;20417;-90
2023/10/14 05:19:47;;;;;;;12.60;1.80;;;;;;;-147.98;100.00;69253.78;4992848;28;20416;-90
2023/10/14 05:22:19;;;;;;;9.27;1.85;;;;;;;-147.98;100.00;69253.78;4994910;28;20432;-89
2023/10/14 05:24:52;;;;;;;12.25;1.77;;;;;;;-147.98;100.00;69253.78;4999816;28;20446;-89
2023/10/14 05:27:21;;;;;;;15.40;2.10;;;;;;;-147.98;100.00;69253.78;5012890;28;20432;-90
2023/10/14 05:29:51;;;;;;;8.80;1.87;;;;;;;-147.98;100.00;69253.78;5012713;28;20432;-91
2023/10/14 05:32:30;;;;;;;9.32;1.65;;;;;;;-147.98;100.00;69253.78;5008464;28;20425;-93
2023/10/14 05:34:59;;;;;;;11.77;1.73;;;;;;;-147.98;100.00;69253.78;4984190;28;20902;-92
2023/10/14 05:37:28;;;;;;;10.07;1.80;;;;;;;-147.98;100.00;69253.78;4993744;28;20413;-91
2023/10/14 05:39:56;;;;;;;8.13;1.73;;;;;;;-147.98;100.00;69253.78;4996288;28;20432;-91
2023/10/14 05:42:25;;;;;;;8.05;1.88;;;;;;;-147.98;100.00;69253.78;5009913;28;20444;-93
2023/10/14 05:44:59;;;;;;;10.82;2.00;;;;;;;-147.98;100.00;69253.78;5003266;28;20429;-91
2023/10/14 05:47:29;;;;;;;9.67;1.93;;;;;;;-147.98;100.00;69253.78;4990747;28;20838;-91
2023/10/14 05:49:58;;;;;;;17.02;2.70;;;;;;;-147.98;100.00;69253.78;5016404;28;20408;-90
2023/10/14 05:52:27;;;;;;;10.55;1.98;;;;;;;-147.98;100.00;69253.78;4993770;28;20432;-89
2023/10/14 05:54:56;;;;;;;13.38;1.88;;;;;;;-147.98;100.00;69253.78;5006771;28;20815;-89
2023/10/14 05:57:25;;;;;;;10.47;1.87;;;;;;;-147.98;100.00;69253.78;5009707;28;20512;-91
2023/10/14 05:59:57;;;;;;;13.75;1.88;;;;;;;-147.98;100.00;69253.78;5010209;28;20420;-91
2023/10/14 06:02:25;;;;;;;9.43;1.77;;;;;;;-147.98;100.00;69253.78;5004432;28;20986;-90
2023/10/14 06:04:54;;;;;;;14.15;1.90;;;;;;;-147.98;100.00;69253.78;4992591;28;20430;-91
2023/10/14 06:07:23;;;;;;;9.75;1.90;;;;;;;-147.98;100.00;69253.78;4986310;28;20435;-90
2023/10/14 06:09:51;;;;;;;12.48;1.88;;;;;;;-147.98;100.00;69253.78;4989249;28;20416;-89
2023/10/14 06:12:20;;;;;;;8.98;2.10;;;;;;;-147.98;100.00;69253.78;5002459;28;20421;-91
2023/10/14 06:14:48;;;;;;;13.00;1.98;;;;;;;-147.98;100.00;69253.78;5003610;28;20416;-90
2023/10/14 06:17:18;;;;;;;10.88;2.10;;;;;;;-147.98;100.00;69253.78;5003285;28;20916;-90
2023/10/14 06:19:47;;;;;;;12.05;2.00;;;;;;;-147.98;100.00;69253.78;4989349;28;20449;-91
2023/10/14 06:22:15;;;;;;;11.63;1.98;;;;;;;-147.98;100.00;69253.78;5006240;28;20942;-91
2023/10/14 06:24:44;;;;;;;10.68;1.90;;;;;;;-147.98;100.00;69253.78;5005997;28;20436;-89
2023/10/14 06:27:20;;;;;;;7.15;1.65;;;;;;;-147.98;100.00;69253.78;5010810;28;20409;-90
2023/10/14 06:29:49;;;;;;;12.07;1.88;;;;;;;-147.98;100.00;69253.78;5003246;28;20443;-91
2023/10/14 06:32:19;;;;;;;15.65;2.08;;;;;;;-147.98;100.00;69253.78;5006001;28;20953;-90
2023/10/14 06:34:57;;;;;;;7.87;2.00;;;;;;;-147.98;100.00;69253.78;5004389;28;20492;-92
2023/10/14 06:37:26;;;;;;;7.82;1.60;;;;;;;-147.98;100.00;69253.78;4985217;28;20421;-90
2023/10/14 06:39:56;;;;;;;12.52;2.00;;;;;;;-147.98;100.00;69253.78;4989637;28;20440;-90
2023/10/14 06:42:26;;;;;;;12.05;2.22;;;;;;;-147.98;100.00;69253.78;5011846;28;20934;-90
2023/10/14 06:44:55;;;;;;;14.45;2.30;;;;;;;-147.98;100.00;69253.78;5002771;28;20444;-92
2023/10/14 06:47:25;;;;;;;11.45;2.00;;;;;;;-147.98;100.00;69253.78;4992007;28;20424;-89
2023/10/14 06:49:54;;;;;;;9.90;2.10;;;;;;;-147.98;100.00;69253.78;4993736;28;20427;-89
2023/10/14 06:52:22;;;;;;;11.23;2.00;;;;;;;-147.98;100.00;69253.78;4984865;28;20437;-90
2023/10/14 06:54:53;;;;;;;11.48;2.20;;;;;;;-147.98;100.00;69253.78;4985416;28;20440;-88
2023/10/14 06:57:22;;;;;;;10.45;1.90;;;;;;;-147.98;100.00;69253.78;4993712;28;21137;-88
2023/10/14 06:59:51;;;;;;;12.63;1.90;;;;;;;-147.98;100.00;69253.78;5006196;28;20945;-91
2023/10/14 07:02:21;;;;;;;8.80;2.10;;;;;;;-147.98;100.00;69253.78;4999961;28;20785;-90
2023/10/14 07:04:51;;;;;;;10.95;2.30;;;;;;;-147.98;100.00;69253.78;4988133;28;20761;-90
2023/10/14 07:07:19;;;;;;;14.10;1.97;;;;;;;-147.98;100.00;69253.78;4991102;28;20776;-88
2023/10/14 07:09:48;;;;;;;14.30;2.47;;;;;;;-147.98;100.00;69253.78;5001013;28;20414;-90
2023/10/14 07:12:21;;;;;;;11.05;2.00;;;;;;;-147.98;100.00;69253.78;5006027;28;20437;-91
2023/10/14 07:14:53;;;;;;;9.70;1.90;;;;;;;-147.98;100.00;69253.78;4987653;28;20432;-89
2023/10/14 07:17:25;;;;;;;14.27;2.28;;;;;;;-147.98;100.00;69253.78;4995922;28;20416;-92
2023/10/14 07:19:55;;;;;;;14.43;2.20;;;;;;;-147.98;100.00;69253.78;4993098;28;20416;-91
2023/10/14 07:22:24;;;;;;;15.52;2.10;;;;;;;-147.98;100.00;69253.78;5002812;28;20426;-87
2023/10/14 07:24:53;;;;;;;8.80;1.60;;;;;;;-147.98;100.00;69253.78;4994668;28;20418;-90
2023/10/14 07:27:39;;;;;;;12.70;1.88;;;;;;;-147.98;100.00;69253.78;4989393;28;20420;-93
2023/10/14 07:30:13;;;;;;;10.10;1.83;;;;;;;-147.98;100.00;69253.78;4989447;28;20426;-88
2023/10/14 07:32:43;;;;;;;13.27;1.92;;;;;;;-147.98;100.00;69253.78;5000980;28;20420;-89
2023/10/14 07:35:15;;;;;;;16.08;1.90;;;;;;;-147.98;100.00;69253.78;5005390;28;20417;-89
2023/10/14 07:37:45;;;;;;;13.07;1.83;;;;;;;-147.98;100.00;69253.78;4989531;28;20434;-90
2023/10/14 07:40:23;;;;;;;13.37;1.67;;;;;;;-147.98;100.00;69253.78;5010076;28;20460;-91
2023/10/14 07:42:53;;;;;;;14.45;1.90;;;;;;;-147.98;100.00;69253.78;4988543;28;20435;-91
2023/10/14 07:45:28;;;;;;;13.93;1.80;;;;;;;-147.98;100.00;69253.78;4986712;28;20431;-91
2023/10/14 07:47:57;;;;;;;10.27;1.75;;;;;;;-147.98;100.00;69253.78;4996588;28;20766;-89
2023/10/14 07:50:31;;;;;;;13.55;1.90;;;;;;;-147.98;100.00;69253.78;4995606;28;20419;-90
2023/10/14 07:53:07;;;;;;;10.38;1.85;;;;;;;-147.98;100.00;69253.78;5006605;28;20923;-90
2023/10/14 07:55:41;;;;;;;13.88;1.70;;;;;;;-147.98;100.00;69253.78;4999263;28;20439;-89
2023/10/14 07:58:11;;;;;;;12.10;1.63;;;;;;;-147.98;100.00;69253.78;4989976;28;20418;-89
2023/10/14 08:00:41;;;;;;;11.77;1.63;;;;;;;-147.98;100.00;69253.78;5011828;28;20422;-89
2023/10/14 08:03:18;;;;;;;17.77;2.00;;;;;;;-147.98;100.00;69253.78;4983241;28;20770;-86
2023/10/14 08:05:52;;;;;;;15.10;2.30;;;;;;;-147.98;100.00;69253.78;4987613;28;20432;-89
2023/10/14 08:08:22;;;;;;;15.00;2.00;;;;;;;-147.98;100.00;69253.78;5002819;28;20423;-89
2023/10/14 08:10:57;;;;;;;13.40;1.80;;;;;;;-147.98;100.00;69253.78;4995662;28;20548;-89
2023/10/14 08:13:26;;;;;;;13.77;2.00;;;;;;;-147.98;100.00;69253.78;5000156;28;20435;-88
2023/10/14 08:15:56;;;;;;;12.20;2.30;;;;;;;-147.98;100.00;69253.78;5008665;28;20428;-90
2023/10/14 08:18:25;;;;;;;11.85;1.90;;;;;;;-147.98;100.00;69253.78;5001320;28;20432;-91
2023/10/14 08:20:56;;;;;;;11.80;2.03;;;;;;;-147.98;100.00;69253.78;4990955;28;20424;-89
2023/10/14 08:23:25;;;;;;;12.68;2.10;;;;;;;-147.98;100.00;69253.78;5001597;28;20435;-88
2023/10/14 08:25:55;;;;;;;14.15;1.92;;;;;;;-147.98;100.00;69253.78;5001942;28;20434;-89
2023/10/14 08:28:23;;;;;;;15.27;1.85;;;;;;;-147.98;100.00;69253.78;4985887;28;20429;-88
2023/10/14 08:30:52;;;;;;;15.90;2.40;;;;;;;-147.98;100.00;69253.78;5000211;28;20496;-89
2023/10/14 08:33:23;;;;;;;18.45;1.98;;;;;;;-147.98;100.00;69253.78;4989689;28;20986;-89
2023/10/14 08:35:52;;;;;;;13.35;2.00;;;;;;;-147.98;100.00;69253.78;4990860;28;20421;-90
2023/10/14 08:38:23;;;;;;;12.20;1.95;;;;;;;-147.98;100.00;69253.78;4985733;28;20438;-90
2023/10/14 08:40:53;;;;;;;15.97;1.97;;;;;;;-147.98;100.00;69253.78;4985873;28;20512;-90
2023/10/14 08:43:23;;;;;;;12.05;1.77;;;;;;;-147.98;100.00;69253.78;4986965;28;20779;-90
2023/10/14 08:45:53;;;;;;;15.00;2.05;;;;;;;-147.98;100.00;69253.78;4990330;28;20428;-91
2023/10/14 08:48:23;;;;;;;12.18;2.00;;;;;;;-147.98;100.00;69253.78;5001559;28;20441;-91
2023/10/14 08:50:55;;;;;;;13.30;2.13;;;;;;;-147.98;100.00;69253.78;5008329;28;20771;-90
2023/10/14 08:53:26;;;;;;;13.50;2.20;;;;;;;-147.98;100.00;69253.78;4989149;28;20428;-90
2023/10/14 08:55:57;;;;;;;11.57;1.45;;;;;;;-147.98;100.00;69253.78;5004709;28;20751;-90
2023/10/14 08:58:26;;;;;;;11.23;1.83;;;;;;;-147.98;100.00;69253.78;4990158;28;20421;-89
2023/10/14 09:00:56;;;;;;;13.48;2.03;;;;;;;-147.98;100.00;69253.78;4989307;28;20788;-88
2023/10/14 09:03:25;;;;;;;14.93;1.98;;;;;;;-147.98;100.00;69253.78;4989790;28;20447;-89
2023/10/14 09:05:53;;;;;;;10.63;1.70;;;;;;;-147.98;100.00;69253.78;5004537;28;20783;-89
2023/10/14 09:08:22;;;;;;;15.65;2.00;;;;;;;-147.98;100.00;69253.78;5003201;28;20412;-89
2023/10/14 09:10:52;;;;;;;16.23;2.55;;;;;;;-147.98;100.00;69253.78;5002108;28;20447;-90
2023/10/14 09:13:22;;;;;;;16.15;2.25;;;;;;;-147.98;100.00;69253.78;4987077;28;20784;-90
2023/10/14 09:15:51;;;;;;;16.30;2.37;;;;;;;-147.98;100.00;69253.78;5005684;28;20533;-91
2023/10/14 09:18:21;;;;;;;17.05;1.95;;;;;;;-147.98;100.00;69253.78;5009678;28;20420;-91
2023/10/14 09:20:54;;;;;;;15.88;2.22;;;;;;;-147.98;100.00;69253.78;5010264;28;20909;-90
2023/10/14 09:23:29;;;;;;;15.77;2.13;;;;;;;-147.98;100.00;69253.78;4991161;28;20439;-89
2023/10/14 09:26:01;;;;;;;12.15;1.70;;;;;;;-147.98;100.00;69253.78;4996208;28;20436;-90
2023/10/14 09:28:32;;;;;;;14.25;1.67;;;;;;;-147.98;100.00;69253.78;4987553;28;20439;-87
2023/10/14 09:31:03;;;;;;;11.95;1.65;;;;;;;-147.98;100.00;69253.78;5005997;28;20435;-89
2023/10/14 09:33:34;;;;;;;11.88;1.67;;;;;;;-147.98;100.00;69253.78;4985485;28;20421;-90
2023/10/14 09:36:05;;;;;;;11.00;1.75;;;;;;;-147.98;100.00;69253.78;4996108;28;20416;-91
2023/10/14 09:38:34;;;;;;;14.30;2.00;;;;;;;-147.98;100.00;69253.78;4986968;28;20439;-88
2023/10/14 09:41:07;;;;;;;10.50;1.52;;;;;;;-147.98;100.00;69253.78;4981759;28;20764;-89
2023/10/14 09:43:39;;;;;;;11.53;1.87;;;;;;;-147.98;100.00;69253.78;5009674;28;20421;-89
2023/10/14 09:46:11;;;;;;;11.27;1.67;;;;;;;-147.98;100.00;69253.78;4988421;28;20428;-90
2023/10/14 09:48:43;;;;;;;12.52;1.88;;;;;;;-147.98;100.00;69253.78;4989711;28;21757;-88
2023/10/14 09:51:13;;;;;;;13.57;1.73;;;;;;;-147.98;100.00;69253.78;5009785;28;20416;-88
2023/10/14 09:53:52;;;;;;;22.85;8.10;;;;;;;-147.98;100.00;69253.78;4996013;28;20417;-92
2023/10/14 09:56:41;;;;;;;17.60;1.90;;;;;;;-147.98;100.00;69253.78;5006986;28;20436;-91
2023/10/14 09:59:11;;;;;;;10.90;1.70;;;;;;;-147.98;100.00;69253.78;4993372;28;20784;-90
2023/10/14 10:01:39;;;;;;;12.20;1.90;;;;;;;-147.98;100.00;69253.78;5000613;28;20424;-88
2023/10/14 10:04:14;;;;;;;11.10;1.75;;;;;;;-147.98;100.00;69253.78;5002826;28;20764;-92
2023/10/14 10:06:54;;;;;;;14.57;1.98;;;;;;;-147.98;100.00;69253.78;5010388;28;20907;-90
2023/10/14 10:09:41;;;;;;;9.02;1.70;;;;;;;-147.98;100.00;69253.78;5009334;28;20935;-90
2023/10/14 10:12:11;;;;;;;13.25;1.65;;;;;;;-147.98;100.00;69253.78;4997148;28;20440;-90
2023/10/14 10:14:42;;;;;;;13.25;1.75;;;;;;;-147.98;100.00;69253.78;5003031;28;20421;-89
2023/10/14 10:17:12;;;;;;;12.75;1.77;;;;;;;-147.98;100.00;69253.78;4993135;28;20891;-88
2023/10/14 10:20:08;;;;;;;13.57;2.00;;;;;;;-147.98;100.00;69253.78;5006914;28;20431;-91
2023/10/14 10:22:50;;;;;;;10.68;1.73;;;;;;;-147.98;100.00;69253.78;5004030;28;21092;-88
2023/10/14 10:25:19;;;;;;;12.05;1.60;;;;;;;-147.98;100.00;69253.78;4990380;28;20428;-89
2023/10/14 10:27:55;;;;;;;11.57;1.80;;;;;;;-147.98;100.00;69253.78;5010824;28;20779;-90
2023/10/14 10:30:25;;;;;;;12.73;1.40;;;;;;;-147.98;100.00;69253.78;5005992;28;20424;-89
2023/10/14 10:33:10;;;;;;;11.48;1.55;;;;;;;-147.98;100.00;69253.78;4994144;28;20425;-87
2023/10/14 10:35:55;;;;;;;5.03;1.00;;;;;;;-147.98;100.00;69253.78;5006463;28;20429;-87
2023/10/14 10:38:24;;;;;;;4.28;0.80;;;;;;;-147.98;100.00;69253.78;4999932;28;20434;-88
2023/10/14 10:41:23;;;;;;;8.87;1.47;;;;;;;-147.98;100.00;69253.78;4988001;28;20432;-89
2023/10/14 10:44:00;;;;;;;8.57;1.45;;;;;;;-147.98;100.00;69253.78;4989572;28;20413;-89
2023/10/14 10:46:38;;;;;;;9.30;1.25;;;;;;;-147.98;100.00;69253.78;5002618;28;20916;-91
2023/10/14 10:49:07;;;;;;;7.53;1.13;;;;;;;-147.98;100.00;69253.78;4989920;28;20438;-86
2023/10/14 10:51:35;;;;;;;9.55;1.50;;;;;;;-147.98;100.00;69253.78;5007164;28;20411;-89
2023/10/14 10:54:05;;;;;;;10.82;1.98;;;;;;;-147.98;100.00;69253.78;5009197;28;20807;-91
2023/10/14 10:56:34;;;;;;;14.75;3.55;;;;;;;-147.98;100.00;69253.78;4991083;28;20428;-91
2023/10/14 10:59:05;;;;;;;19.25;4.68;;;;;;;-147.98;100.00;69253.78;4990766;28;20427;-90
2023/10/14 11:01:34;;;;;;;17.48;4.32;;;;;;;-147.98;100.00;69253.78;4987022;28;20422;-87
2023/10/14 11:04:08;;;;;;;17.42;4.60;;;;;;;-147.98;100.00;69253.78;5000038;28;20518;-90
2023/10/14 11:06:37;;;;;;;15.13;3.90;;;;;;;-147.98;100.00;69253.78;5001008;28;20434;-88
2023/10/14 11:09:07;;;;;;;10.40;2.92;;;;;;;-147.98;100.00;69253.78;5009918;28;20413;-88
2023/10/14 11:11:37;;;;;;;10.18;2.63;;;;;;;-147.98;100.00;69253.78;5008885;28;20425;-87
2023/10/14 11:14:23;;;;;;;9.25;2.10;;;;;;;-147.98;100.00;69253.78;4993301;28;20426;-92
2023/10/14 11:16:53;;;;;;;6.40;1.38;;;;;;;-147.98;100.00;69253.78;4992458;28;20425;-90
2023/10/14 11:19:21;;;;;;;3.70;0.90;;;;;;;-147.98;100.00;69253.78;4992089;28;20421;-89
2023/10/14 11:21:52;;;;;;;4.38;0.70;;;;;;;-147.98;100.00;69253.78;5007227;28;20437;-87
2023/10/14 11:24:21;;;;;;;10.65;1.00;;;;;;;-147.98;100.00;69253.78;5005123;28;20434;-91
2023/10/14 11:26:51;;;;;;;2.75;0.85;;;;;;;-147.98;100.00;69253.78;4988871;28;20902;-91
2023/10/14 11:29:24;;;;;;;2.92;0.70;;;;;;;-147.98;100.00;69253.78;5008730;28;20426;-90